sensor_id;sensor_type;location;lat;lon;timestamp;P1;durP1;ratioP1;P2;durP2;ratioP2
35877;SDS011;21982;49.804;24.072;2023-03-23T00:01:13;13.52;;;6.00;;
35877;SDS011;21982;49.804;24.072;2023-03-23T00:03:48;11.35;;;5.57;;
35877;SDS011;21982;49.804;24.072;2023-03-23T00:06:15;12.25;;;5.97;;
35877;SDS011;21982;49.804;24.072;2023-03-23T00:08:42;12.77;;;6.28;;
35877;SDS011;21982;49.804;24.072;2023-03-23T00:13:43;8.95;;;5.40;;
35877;SDS011;21982;49.804;24.072;2023-03-23T00:16:11;11.40;;;5.60;;
35877;SDS011;21982;49.804;24.072;2023-03-23T00:18:50;11.90;;;6.13;;
35877;SDS011;21982;49.804;24.072;2023-03-23T00:21:19;12.00;;;6.57;;
35877;SDS011;21982;49.804;24.072;2023-03-23T00:23:45;11.77;;;5.72;;
35877;SDS011;21982;49.804;24.072;2023-03-23T00:26:11;11.35;;;6.15;;
35877;SDS011;21982;49.804;24.072;2023-03-23T00:28:38;9.63;;;4.43;;
35877;SDS011;21982;49.804;24.072;2023-03-23T00:31:06;8.23;;;4.55;;
35877;SDS011;21982;49.804;24.072;2023-03-23T00:33:33;11.55;;;5.68;;
35877;SDS011;21982;49.804;24.072;2023-03-23T00:36:03;12.32;;;6.70;;
35877;SDS011;21982;49.804;24.072;2023-03-23T00:38:30;11.45;;;6.70;;
35877;SDS011;21982;49.804;24.072;2023-03-23T00:40:56;9.93;;;5.63;;
35877;SDS011;21982;49.804;24.072;2023-03-23T00:43:22;14.52;;;6.68;;
35877;SDS011;21982;49.804;24.072;2023-03-23T00:45:53;12.98;;;6.55;;
35877;SDS011;21982;49.804;24.072;2023-03-23T00:48:19;10.90;;;5.80;;
35877;SDS011;21982;49.804;24.072;2023-03-23T00:50:45;9.85;;;5.40;;
35877;SDS011;21982;49.804;24.072;2023-03-23T00:53:11;10.38;;;5.35;;
35877;SDS011;21982;49.804;24.072;2023-03-23T00:55:37;9.73;;;5.07;;
35877;SDS011;21982;49.804;24.072;2023-03-23T00:58:02;10.50;;;5.85;;
35877;SDS011;21982;49.804;24.072;2023-03-23T01:00:27;9.63;;;4.22;;
35877;SDS011;21982;49.804;24.072;2023-03-23T01:02:53;11.98;;;5.43;;
35877;SDS011;21982;49.804;24.072;2023-03-23T01:05:19;8.77;;;4.63;;
35877;SDS011;21982;49.804;24.072;2023-03-23T01:07:45;12.02;;;5.63;;
35877;SDS011;21982;49.804;24.072;2023-03-23T01:10:12;11.80;;;5.20;;
35877;SDS011;21982;49.804;24.072;2023-03-23T01:12:41;8.70;;;5.25;;
35877;SDS011;21982;49.804;24.072;2023-03-23T01:15:07;9.75;;;4.63;;
35877;SDS011;21982;49.804;24.072;2023-03-23T01:17:33;10.63;;;4.57;;
35877;SDS011;21982;49.804;24.072;2023-03-23T01:19:58;12.90;;;5.10;;
35877;SDS011;21982;49.804;24.072;2023-03-23T01:22:24;11.43;;;6.25;;
35877;SDS011;21982;49.804;24.072;2023-03-23T01:24:49;9.93;;;5.30;;
35877;SDS011;21982;49.804;24.072;2023-03-23T01:27:15;9.35;;;5.10;;
35877;SDS011;21982;49.804;24.072;2023-03-23T01:29:40;9.95;;;4.85;;
35877;SDS011;21982;49.804;24.072;2023-03-23T01:32:06;10.52;;;5.78;;
35877;SDS011;21982;49.804;24.072;2023-03-23T01:34:31;8.88;;;4.63;;
35877;SDS011;21982;49.804;24.072;2023-03-23T01:36:56;9.55;;;4.10;;
35877;SDS011;21982;49.804;24.072;2023-03-23T01:39:22;8.40;;;4.70;;
35877;SDS011;21982;49.804;24.072;2023-03-23T01:41:48;8.10;;;4.45;;
35877;SDS011;21982;49.804;24.072;2023-03-23T01:46:42;7.82;;;4.25;;
35877;SDS011;21982;49.804;24.072;2023-03-23T01:49:09;7.68;;;4.03;;
35877;SDS011;21982;49.804;24.072;2023-03-23T01:52:00;9.10;;;3.88;;
35877;SDS011;21982;49.804;24.072;2023-03-23T01:54:33;9.83;;;4.30;;
35877;SDS011;21982;49.804;24.072;2023-03-23T01:59:31;11.18;;;4.50;;
35877;SDS011;21982;49.804;24.072;2023-03-23T02:01:58;9.20;;;4.57;;
35877;SDS011;21982;49.804;24.072;2023-03-23T02:04:25;9.38;;;4.13;;
35877;SDS011;21982;49.804;24.072;2023-03-23T02:06:53;9.68;;;4.28;;
35877;SDS011;21982;49.804;24.072;2023-03-23T02:09:21;12.35;;;4.70;;
35877;SDS011;21982;49.804;24.072;2023-03-23T02:11:47;10.02;;;4.75;;
35877;SDS011;21982;49.804;24.072;2023-03-23T02:14:15;11.23;;;5.03;;
35877;SDS011;21982;49.804;24.072;2023-03-23T02:16:45;9.82;;;4.90;;
35877;SDS011;21982;49.804;24.072;2023-03-23T02:19:34;7.65;;;3.70;;
35877;SDS011;21982;49.804;24.072;2023-03-23T02:31:02;8.70;;;3.92;;
35877;SDS011;21982;49.804;24.072;2023-03-23T02:38:38;9.02;;;4.28;;
35877;SDS011;21982;49.804;24.072;2023-03-23T02:41:08;8.02;;;3.97;;
35877;SDS011;21982;49.804;24.072;2023-03-23T02:43:38;9.20;;;5.00;;
35877;SDS011;21982;49.804;24.072;2023-03-23T02:46:08;10.20;;;5.40;;
35877;SDS011;21982;49.804;24.072;2023-03-23T02:48:35;8.90;;;4.00;;
35877;SDS011;21982;49.804;24.072;2023-03-23T02:51:03;8.02;;;4.10;;
35877;SDS011;21982;49.804;24.072;2023-03-23T02:53:31;9.27;;;4.63;;
35877;SDS011;21982;49.804;24.072;2023-03-23T02:56:01;14.27;;;4.80;;
35877;SDS011;21982;49.804;24.072;2023-03-23T02:58:30;9.00;;;4.18;;
35877;SDS011;21982;49.804;24.072;2023-03-23T03:00:55;11.27;;;5.05;;
35877;SDS011;21982;49.804;24.072;2023-03-23T03:03:22;10.65;;;4.85;;
35877;SDS011;21982;49.804;24.072;2023-03-23T03:11:09;11.02;;;4.40;;
35877;SDS011;21982;49.804;24.072;2023-03-23T03:19:29;8.15;;;3.63;;
35877;SDS011;21982;49.804;24.072;2023-03-23T03:21:57;8.25;;;4.22;;
35877;SDS011;21982;49.804;24.072;2023-03-23T03:24:24;10.05;;;4.38;;
35877;SDS011;21982;49.804;24.072;2023-03-23T03:26:53;8.60;;;3.90;;
35877;SDS011;21982;49.804;24.072;2023-03-23T03:29:26;8.25;;;3.92;;
35877;SDS011;21982;49.804;24.072;2023-03-23T03:31:57;8.07;;;4.05;;
35877;SDS011;21982;49.804;24.072;2023-03-23T03:34:25;10.13;;;4.70;;
35877;SDS011;21982;49.804;24.072;2023-03-23T03:36:51;7.63;;;3.75;;
35877;SDS011;21982;49.804;24.072;2023-03-23T03:39:19;8.70;;;4.00;;
35877;SDS011;21982;49.804;24.072;2023-03-23T03:41:46;8.55;;;4.25;;
35877;SDS011;21982;49.804;24.072;2023-03-23T03:44:13;9.50;;;4.20;;
35877;SDS011;21982;49.804;24.072;2023-03-23T03:46:38;9.38;;;4.88;;
35877;SDS011;21982;49.804;24.072;2023-03-23T03:49:05;9.48;;;4.38;;
35877;SDS011;21982;49.804;24.072;2023-03-23T03:51:32;10.05;;;4.45;;
35877;SDS011;21982;49.804;24.072;2023-03-23T03:53:58;9.23;;;4.53;;
35877;SDS011;21982;49.804;24.072;2023-03-23T03:56:24;11.63;;;5.10;;
35877;SDS011;21982;49.804;24.072;2023-03-23T03:58:51;11.15;;;4.88;;
35877;SDS011;21982;49.804;24.072;2023-03-23T04:01:17;10.93;;;5.00;;
35877;SDS011;21982;49.804;24.072;2023-03-23T04:03:47;12.93;;;5.45;;
35877;SDS011;21982;49.804;24.072;2023-03-23T04:06:13;9.48;;;5.07;;
35877;SDS011;21982;49.804;24.072;2023-03-23T04:08:39;10.63;;;5.13;;
35877;SDS011;21982;49.804;24.072;2023-03-23T04:11:06;12.95;;;5.68;;
35877;SDS011;21982;49.804;24.072;2023-03-23T04:13:32;10.50;;;5.22;;
35877;SDS011;21982;49.804;24.072;2023-03-23T04:15:58;8.82;;;4.80;;
35877;SDS011;21982;49.804;24.072;2023-03-23T04:18:23;8.60;;;4.90;;
35877;SDS011;21982;49.804;24.072;2023-03-23T04:20:50;10.45;;;4.05;;
35877;SDS011;21982;49.804;24.072;2023-03-23T04:23:17;9.93;;;4.63;;
35877;SDS011;21982;49.804;24.072;2023-03-23T04:25:51;10.52;;;5.07;;
35877;SDS011;21982;49.804;24.072;2023-03-23T04:28:18;10.38;;;4.07;;
35877;SDS011;21982;49.804;24.072;2023-03-23T04:30:48;10.88;;;5.40;;
35877;SDS011;21982;49.804;24.072;2023-03-23T04:33:18;10.60;;;5.47;;
35877;SDS011;21982;49.804;24.072;2023-03-23T04:35:44;11.68;;;5.18;;
35877;SDS011;21982;49.804;24.072;2023-03-23T04:38:13;10.90;;;4.18;;
35877;SDS011;21982;49.804;24.072;2023-03-23T04:40:40;12.90;;;4.82;;
35877;SDS011;21982;49.804;24.072;2023-03-23T04:43:08;8.45;;;4.32;;
35877;SDS011;21982;49.804;24.072;2023-03-23T04:45:34;10.45;;;5.18;;
35877;SDS011;21982;49.804;24.072;2023-03-23T04:48:02;9.60;;;5.85;;
35877;SDS011;21982;49.804;24.072;2023-03-23T04:50:30;9.80;;;5.13;;
35877;SDS011;21982;49.804;24.072;2023-03-23T04:52:57;10.50;;;5.15;;
35877;SDS011;21982;49.804;24.072;2023-03-23T04:55:24;10.48;;;5.20;;
35877;SDS011;21982;49.804;24.072;2023-03-23T04:57:50;12.55;;;6.22;;
35877;SDS011;21982;49.804;24.072;2023-03-23T05:00:17;12.10;;;5.70;;
35877;SDS011;21982;49.804;24.072;2023-03-23T05:02:43;10.90;;;4.93;;
35877;SDS011;21982;49.804;24.072;2023-03-23T05:05:11;11.38;;;6.35;;
35877;SDS011;21982;49.804;24.072;2023-03-23T05:07:39;11.32;;;6.38;;
35877;SDS011;21982;49.804;24.072;2023-03-23T05:10:06;9.30;;;5.45;;
35877;SDS011;21982;49.804;24.072;2023-03-23T05:12:32;12.65;;;4.97;;
35877;SDS011;21982;49.804;24.072;2023-03-23T05:14:58;9.43;;;5.32;;
35877;SDS011;21982;49.804;24.072;2023-03-23T05:17:23;11.85;;;4.32;;
35877;SDS011;21982;49.804;24.072;2023-03-23T05:19:50;10.75;;;5.47;;
35877;SDS011;21982;49.804;24.072;2023-03-23T05:22:16;10.88;;;5.18;;
35877;SDS011;21982;49.804;24.072;2023-03-23T05:24:42;10.98;;;5.05;;
35877;SDS011;21982;49.804;24.072;2023-03-23T05:27:09;10.18;;;5.45;;
35877;SDS011;21982;49.804;24.072;2023-03-23T05:29:35;9.82;;;5.28;;
35877;SDS011;21982;49.804;24.072;2023-03-23T05:32:05;8.80;;;5.00;;
35877;SDS011;21982;49.804;24.072;2023-03-23T05:34:32;10.43;;;5.00;;
35877;SDS011;21982;49.804;24.072;2023-03-23T05:36:59;10.55;;;5.05;;
35877;SDS011;21982;49.804;24.072;2023-03-23T05:39:25;9.55;;;4.95;;
35877;SDS011;21982;49.804;24.072;2023-03-23T05:41:52;11.60;;;5.28;;
35877;SDS011;21982;49.804;24.072;2023-03-23T05:44:17;11.40;;;5.47;;
35877;SDS011;21982;49.804;24.072;2023-03-23T05:46:43;9.73;;;5.60;;
35877;SDS011;21982;49.804;24.072;2023-03-23T05:49:08;10.93;;;6.07;;
35877;SDS011;21982;49.804;24.072;2023-03-23T05:51:34;12.90;;;5.10;;
35877;SDS011;21982;49.804;24.072;2023-03-23T05:53:59;9.68;;;4.53;;
35877;SDS011;21982;49.804;24.072;2023-03-23T05:56:25;12.80;;;6.40;;
35877;SDS011;21982;49.804;24.072;2023-03-23T05:58:51;17.15;;;7.57;;
35877;SDS011;21982;49.804;24.072;2023-03-23T06:01:17;13.32;;;4.85;;
35877;SDS011;21982;49.804;24.072;2023-03-23T06:03:43;20.60;;;10.45;;
35877;SDS011;21982;49.804;24.072;2023-03-23T06:06:10;15.15;;;7.55;;
35877;SDS011;21982;49.804;24.072;2023-03-23T06:08:36;11.68;;;5.32;;
35877;SDS011;21982;49.804;24.072;2023-03-23T06:11:02;13.02;;;5.53;;
35877;SDS011;21982;49.804;24.072;2023-03-23T06:13:28;11.85;;;6.82;;
35877;SDS011;21982;49.804;24.072;2023-03-23T06:15:56;10.05;;;5.85;;
35877;SDS011;21982;49.804;24.072;2023-03-23T06:18:22;11.90;;;5.55;;
35877;SDS011;21982;49.804;24.072;2023-03-23T06:20:48;36.83;;;7.43;;
35877;SDS011;21982;49.804;24.072;2023-03-23T06:23:14;11.02;;;6.15;;
35877;SDS011;21982;49.804;24.072;2023-03-23T06:25:40;14.23;;;7.05;;
35877;SDS011;21982;49.804;24.072;2023-03-23T06:28:05;10.07;;;4.78;;
35877;SDS011;21982;49.804;24.072;2023-03-23T06:30:31;11.65;;;5.97;;
35877;SDS011;21982;49.804;24.072;2023-03-23T06:32:57;12.50;;;6.20;;
35877;SDS011;21982;49.804;24.072;2023-03-23T06:35:22;10.82;;;6.40;;
35877;SDS011;21982;49.804;24.072;2023-03-23T06:37:48;9.77;;;5.30;;
35877;SDS011;21982;49.804;24.072;2023-03-23T06:40:13;8.63;;;5.35;;
35877;SDS011;21982;49.804;24.072;2023-03-23T06:42:39;11.15;;;5.85;;
35877;SDS011;21982;49.804;24.072;2023-03-23T06:45:04;10.82;;;5.75;;
35877;SDS011;21982;49.804;24.072;2023-03-23T06:47:32;9.57;;;4.97;;
35877;SDS011;21982;49.804;24.072;2023-03-23T06:49:58;12.18;;;6.75;;
35877;SDS011;21982;49.804;24.072;2023-03-23T06:52:25;11.93;;;5.22;;
35877;SDS011;21982;49.804;24.072;2023-03-23T06:54:51;8.77;;;4.38;;
35877;SDS011;21982;49.804;24.072;2023-03-23T06:57:17;11.10;;;5.43;;
35877;SDS011;21982;49.804;24.072;2023-03-23T06:59:43;8.70;;;4.80;;
35877;SDS011;21982;49.804;24.072;2023-03-23T07:02:10;9.65;;;4.88;;
35877;SDS011;21982;49.804;24.072;2023-03-23T07:04:39;9.85;;;5.43;;
35877;SDS011;21982;49.804;24.072;2023-03-23T07:07:10;9.55;;;5.40;;
35877;SDS011;21982;49.804;24.072;2023-03-23T07:09:39;9.40;;;5.45;;
35877;SDS011;21982;49.804;24.072;2023-03-23T07:12:05;9.93;;;5.22;;
35877;SDS011;21982;49.804;24.072;2023-03-23T07:14:30;10.13;;;4.53;;
35877;SDS011;21982;49.804;24.072;2023-03-23T07:16:56;8.95;;;4.82;;
35877;SDS011;21982;49.804;24.072;2023-03-23T07:19:21;9.48;;;4.97;;
35877;SDS011;21982;49.804;24.072;2023-03-23T07:21:47;9.98;;;4.78;;
35877;SDS011;21982;49.804;24.072;2023-03-23T07:24:12;8.93;;;4.93;;
35877;SDS011;21982;49.804;24.072;2023-03-23T07:26:41;14.02;;;4.50;;
35877;SDS011;21982;49.804;24.072;2023-03-23T07:29:09;11.05;;;4.22;;
35877;SDS011;21982;49.804;24.072;2023-03-23T07:31:34;9.13;;;3.92;;
35877;SDS011;21982;49.804;24.072;2023-03-23T07:34:00;7.15;;;3.80;;
35877;SDS011;21982;49.804;24.072;2023-03-23T07:36:27;12.25;;;4.32;;
35877;SDS011;21982;49.804;24.072;2023-03-23T07:38:53;7.80;;;4.45;;
35877;SDS011;21982;49.804;24.072;2023-03-23T07:41:19;8.80;;;3.85;;
35877;SDS011;21982;49.804;24.072;2023-03-23T07:43:45;7.00;;;3.83;;
35877;SDS011;21982;49.804;24.072;2023-03-23T07:46:11;8.52;;;3.67;;
35877;SDS011;21982;49.804;24.072;2023-03-23T07:48:37;7.55;;;3.88;;
35877;SDS011;21982;49.804;24.072;2023-03-23T07:51:03;10.50;;;4.43;;
35877;SDS011;21982;49.804;24.072;2023-03-23T07:53:30;9.18;;;4.28;;
35877;SDS011;21982;49.804;24.072;2023-03-23T07:55:57;10.80;;;5.03;;
35877;SDS011;21982;49.804;24.072;2023-03-23T07:58:22;7.45;;;4.00;;
35877;SDS011;21982;49.804;24.072;2023-03-23T08:00:54;8.05;;;4.43;;
35877;SDS011;21982;49.804;24.072;2023-03-23T08:03:22;7.32;;;4.00;;
35877;SDS011;21982;49.804;24.072;2023-03-23T08:05:51;7.55;;;3.78;;
35877;SDS011;21982;49.804;24.072;2023-03-23T08:08:16;8.23;;;4.38;;
35877;SDS011;21982;49.804;24.072;2023-03-23T08:10:43;7.72;;;3.78;;
35877;SDS011;21982;49.804;24.072;2023-03-23T08:13:08;9.40;;;4.70;;
35877;SDS011;21982;49.804;24.072;2023-03-23T08:15:35;9.20;;;4.00;;
35877;SDS011;21982;49.804;24.072;2023-03-23T08:18:02;7.75;;;3.88;;
35877;SDS011;21982;49.804;24.072;2023-03-23T08:20:28;10.13;;;4.60;;
35877;SDS011;21982;49.804;24.072;2023-03-23T08:22:54;10.35;;;4.40;;
35877;SDS011;21982;49.804;24.072;2023-03-23T08:25:21;7.82;;;4.47;;
35877;SDS011;21982;49.804;24.072;2023-03-23T08:27:48;7.88;;;4.00;;
35877;SDS011;21982;49.804;24.072;2023-03-23T08:30:15;10.18;;;4.13;;
35877;SDS011;21982;49.804;24.072;2023-03-23T08:32:41;10.60;;;4.97;;
35877;SDS011;21982;49.804;24.072;2023-03-23T08:35:11;6.80;;;3.78;;
35877;SDS011;21982;49.804;24.072;2023-03-23T08:37:37;8.13;;;4.00;;
35877;SDS011;21982;49.804;24.072;2023-03-23T08:40:06;9.45;;;4.05;;
35877;SDS011;21982;49.804;24.072;2023-03-23T08:42:34;8.65;;;4.93;;
35877;SDS011;21982;49.804;24.072;2023-03-23T08:45:00;10.40;;;4.68;;
35877;SDS011;21982;49.804;24.072;2023-03-23T08:47:25;8.88;;;3.70;;
35877;SDS011;21982;49.804;24.072;2023-03-23T08:49:51;7.53;;;4.10;;
35877;SDS011;21982;49.804;24.072;2023-03-23T08:52:19;7.32;;;3.95;;
35877;SDS011;21982;49.804;24.072;2023-03-23T08:54:44;9.23;;;3.88;;
35877;SDS011;21982;49.804;24.072;2023-03-23T08:57:12;10.23;;;3.22;;
35877;SDS011;21982;49.804;24.072;2023-03-23T08:59:39;9.10;;;4.50;;
35877;SDS011;21982;49.804;24.072;2023-03-23T09:02:10;7.82;;;3.30;;
35877;SDS011;21982;49.804;24.072;2023-03-23T09:04:39;7.43;;;3.80;;
35877;SDS011;21982;49.804;24.072;2023-03-23T09:07:08;8.15;;;3.90;;
35877;SDS011;21982;49.804;24.072;2023-03-23T09:09:34;7.20;;;3.25;;
35877;SDS011;21982;49.804;24.072;2023-03-23T09:12:00;8.27;;;4.30;;
35877;SDS011;21982;49.804;24.072;2023-03-23T09:14:25;11.60;;;4.18;;
35877;SDS011;21982;49.804;24.072;2023-03-23T09:16:52;6.65;;;4.05;;
35877;SDS011;21982;49.804;24.072;2023-03-23T09:19:17;8.63;;;4.25;;
35877;SDS011;21982;49.804;24.072;2023-03-23T09:21:43;7.57;;;4.15;;
35877;SDS011;21982;49.804;24.072;2023-03-23T09:24:10;8.73;;;3.58;;
35877;SDS011;21982;49.804;24.072;2023-03-23T09:26:36;5.30;;;3.05;;
35877;SDS011;21982;49.804;24.072;2023-03-23T09:29:01;5.20;;;3.17;;
35877;SDS011;21982;49.804;24.072;2023-03-23T09:31:27;8.73;;;3.28;;
35877;SDS011;21982;49.804;24.072;2023-03-23T09:33:53;5.15;;;2.42;;
35877;SDS011;21982;49.804;24.072;2023-03-23T09:36:22;7.20;;;2.75;;
35877;SDS011;21982;49.804;24.072;2023-03-23T09:38:48;5.88;;;2.80;;
35877;SDS011;21982;49.804;24.072;2023-03-23T09:44:14;6.00;;;2.80;;
35877;SDS011;21982;49.804;24.072;2023-03-23T09:47:51;4.82;;;2.20;;
35877;SDS011;21982;49.804;24.072;2023-03-23T09:49:50;4.40;;;1.92;;
35877;SDS011;21982;49.804;24.072;2023-03-23T09:52:19;7.85;;;3.10;;
35877;SDS011;21982;49.804;24.072;2023-03-23T09:54:52;5.30;;;2.30;;
35877;SDS011;21982;49.804;24.072;2023-03-23T09:57:24;4.78;;;3.03;;
35877;SDS011;21982;49.804;24.072;2023-03-23T09:59:55;8.10;;;2.92;;
35877;SDS011;21982;49.804;24.072;2023-03-23T10:02:30;8.70;;;2.40;;
35877;SDS011;21982;49.804;24.072;2023-03-23T10:05:34;3.45;;;2.00;;
35877;SDS011;21982;49.804;24.072;2023-03-23T10:07:55;3.72;;;1.92;;
35877;SDS011;21982;49.804;24.072;2023-03-23T10:10:24;5.95;;;2.30;;
35877;SDS011;21982;49.804;24.072;2023-03-23T10:13:14;5.90;;;2.35;;
35877;SDS011;21982;49.804;24.072;2023-03-23T10:15:41;5.07;;;2.90;;
35877;SDS011;21982;49.804;24.072;2023-03-23T10:18:22;5.05;;;2.53;;
35877;SDS011;21982;49.804;24.072;2023-03-23T10:20:58;6.07;;;2.35;;
35877;SDS011;21982;49.804;24.072;2023-03-23T10:26:16;3.75;;;1.83;;
35877;SDS011;21982;49.804;24.072;2023-03-23T10:32:02;5.75;;;2.80;;
35877;SDS011;21982;49.804;24.072;2023-03-23T10:37:26;5.82;;;2.40;;
35877;SDS011;21982;49.804;24.072;2023-03-23T10:40:04;4.63;;;2.40;;
35877;SDS011;21982;49.804;24.072;2023-03-23T10:42:37;3.25;;;1.92;;
35877;SDS011;21982;49.804;24.072;2023-03-23T10:50:45;3.30;;;1.70;;
35877;SDS011;21982;49.804;24.072;2023-03-23T10:53:16;5.38;;;2.20;;
35877;SDS011;21982;49.804;24.072;2023-03-23T10:55:46;4.75;;;2.15;;
35877;SDS011;21982;49.804;24.072;2023-03-23T10:58:34;4.00;;;2.20;;
35877;SDS011;21982;49.804;24.072;2023-03-23T11:01:06;5.43;;;2.20;;
35877;SDS011;21982;49.804;24.072;2023-03-23T11:03:39;5.85;;;2.58;;
35877;SDS011;21982;49.804;24.072;2023-03-23T11:06:07;5.07;;;2.22;;
35877;SDS011;21982;49.804;24.072;2023-03-23T11:08:37;7.47;;;2.33;;
35877;SDS011;21982;49.804;24.072;2023-03-23T11:11:16;7.78;;;2.00;;
35877;SDS011;21982;49.804;24.072;2023-03-23T11:13:43;3.42;;;1.92;;
35877;SDS011;21982;49.804;24.072;2023-03-23T11:16:22;4.32;;;2.45;;
35877;SDS011;21982;49.804;24.072;2023-03-23T11:19:00;5.57;;;2.17;;
35877;SDS011;21982;49.804;24.072;2023-03-23T11:21:37;4.05;;;1.92;;
35877;SDS011;21982;49.804;24.072;2023-03-23T11:24:03;2.10;;;1.20;;
35877;SDS011;21982;49.804;24.072;2023-03-23T11:26:31;5.20;;;2.83;;
35877;SDS011;21982;49.804;24.072;2023-03-23T11:31:30;4.32;;;1.85;;
35877;SDS011;21982;49.804;24.072;2023-03-23T11:33:59;5.35;;;1.73;;
35877;SDS011;21982;49.804;24.072;2023-03-23T11:36:38;4.00;;;1.67;;
35877;SDS011;21982;49.804;24.072;2023-03-23T11:39:20;3.83;;;1.63;;
35877;SDS011;21982;49.804;24.072;2023-03-23T11:41:51;3.47;;;1.63;;
35877;SDS011;21982;49.804;24.072;2023-03-23T11:44:17;3.97;;;1.60;;
35877;SDS011;21982;49.804;24.072;2023-03-23T11:47:01;3.58;;;1.80;;
35877;SDS011;21982;49.804;24.072;2023-03-23T11:52:05;1.85;;;1.33;;
35877;SDS011;21982;49.804;24.072;2023-03-23T11:54:43;3.33;;;1.50;;
35877;SDS011;21982;49.804;24.072;2023-03-23T11:57:21;4.22;;;1.52;;
35877;SDS011;21982;49.804;24.072;2023-03-23T11:59:49;3.72;;;1.50;;
35877;SDS011;21982;49.804;24.072;2023-03-23T12:22:11;3.00;;;1.73;;
35877;SDS011;21982;49.804;24.072;2023-03-23T12:25:33;3.58;;;1.80;;
35877;SDS011;21982;49.804;24.072;2023-03-23T12:30:57;3.78;;;1.48;;
35877;SDS011;21982;49.804;24.072;2023-03-23T12:33:42;6.05;;;1.58;;
35877;SDS011;21982;49.804;24.072;2023-03-23T12:40:07;3.70;;;1.83;;
35877;SDS011;21982;49.804;24.072;2023-03-23T12:45:14;4.05;;;1.23;;
35877;SDS011;21982;49.804;24.072;2023-03-23T12:47:49;4.38;;;1.80;;
35877;SDS011;21982;49.804;24.072;2023-03-23T12:50:28;6.28;;;1.67;;
35877;SDS011;21982;49.804;24.072;2023-03-23T12:55:42;4.20;;;1.83;;
35877;SDS011;21982;49.804;24.072;2023-03-23T13:01:37;5.40;;;2.72;;
35877;SDS011;21982;49.804;24.072;2023-03-23T13:06:33;3.50;;;1.52;;
35877;SDS011;21982;49.804;24.072;2023-03-23T13:14:21;3.40;;;1.80;;
35877;SDS011;21982;49.804;24.072;2023-03-23T13:22:41;5.00;;;1.83;;
35877;SDS011;21982;49.804;24.072;2023-03-23T13:28:47;7.13;;;2.33;;
35877;SDS011;21982;49.804;24.072;2023-03-23T13:33:51;5.93;;;2.17;;
35877;SDS011;21982;49.804;24.072;2023-03-23T13:37:19;5.13;;;2.13;;
35877;SDS011;21982;49.804;24.072;2023-03-23T13:42:22;6.63;;;2.83;;
35877;SDS011;21982;49.804;24.072;2023-03-23T13:49:59;5.88;;;2.33;;
35877;SDS011;21982;49.804;24.072;2023-03-23T14:05:44;8.15;;;2.60;;
35877;SDS011;21982;49.804;24.072;2023-03-23T14:11:00;6.95;;;2.35;;
35877;SDS011;21982;49.804;24.072;2023-03-23T14:16:28;4.10;;;2.25;;
35877;SDS011;21982;49.804;24.072;2023-03-23T14:18:57;5.20;;;2.67;;
35877;SDS011;21982;49.804;24.072;2023-03-23T14:21:42;5.43;;;2.95;;
35877;SDS011;21982;49.804;24.072;2023-03-23T14:26:48;5.45;;;2.58;;
35877;SDS011;21982;49.804;24.072;2023-03-23T14:29:17;4.07;;;2.13;;
35877;SDS011;21982;49.804;24.072;2023-03-23T14:31:43;5.70;;;2.63;;
35877;SDS011;21982;49.804;24.072;2023-03-23T14:34:34;4.45;;;2.30;;
35877;SDS011;21982;49.804;24.072;2023-03-23T14:37:00;7.78;;;2.70;;
35877;SDS011;21982;49.804;24.072;2023-03-23T14:39:29;6.13;;;2.75;;
35877;SDS011;21982;49.804;24.072;2023-03-23T14:42:04;5.68;;;2.72;;
35877;SDS011;21982;49.804;24.072;2023-03-23T14:44:34;4.68;;;2.00;;
35877;SDS011;21982;49.804;24.072;2023-03-23T14:47:06;7.35;;;2.50;;
35877;SDS011;21982;49.804;24.072;2023-03-23T14:49:37;4.35;;;2.25;;
35877;SDS011;21982;49.804;24.072;2023-03-23T14:52:09;7.20;;;2.70;;
35877;SDS011;21982;49.804;24.072;2023-03-23T14:54:37;7.20;;;2.38;;
35877;SDS011;21982;49.804;24.072;2023-03-23T14:57:20;4.88;;;2.58;;
35877;SDS011;21982;49.804;24.072;2023-03-23T14:59:52;5.35;;;2.75;;
35877;SDS011;21982;49.804;24.072;2023-03-23T15:04:55;4.40;;;2.20;;
35877;SDS011;21982;49.804;24.072;2023-03-23T15:07:25;4.18;;;1.77;;
35877;SDS011;21982;49.804;24.072;2023-03-23T15:09:55;6.00;;;2.60;;
35877;SDS011;21982;49.804;24.072;2023-03-23T15:12:22;8.65;;;3.20;;
35877;SDS011;21982;49.804;24.072;2023-03-23T15:14:52;7.63;;;2.00;;
35877;SDS011;21982;49.804;24.072;2023-03-23T15:17:21;5.53;;;2.20;;
35877;SDS011;21982;49.804;24.072;2023-03-23T15:19:49;6.65;;;2.85;;
35877;SDS011;21982;49.804;24.072;2023-03-23T15:22:21;3.97;;;2.00;;
35877;SDS011;21982;49.804;24.072;2023-03-23T15:24:53;4.40;;;2.40;;
35877;SDS011;21982;49.804;24.072;2023-03-23T15:27:48;5.03;;;2.00;;
35877;SDS011;21982;49.804;24.072;2023-03-23T15:32:47;5.88;;;2.47;;
35877;SDS011;21982;49.804;24.072;2023-03-23T15:35:22;4.30;;;2.03;;
35877;SDS011;21982;49.804;24.072;2023-03-23T15:37:56;3.58;;;2.25;;
35877;SDS011;21982;49.804;24.072;2023-03-23T15:40:31;4.38;;;1.98;;
35877;SDS011;21982;49.804;24.072;2023-03-23T15:48:21;5.25;;;2.47;;
35877;SDS011;21982;49.804;24.072;2023-03-23T15:50:48;4.25;;;2.50;;
35877;SDS011;21982;49.804;24.072;2023-03-23T15:56:00;4.38;;;2.65;;
35877;SDS011;21982;49.804;24.072;2023-03-23T15:58:27;7.32;;;2.47;;
35877;SDS011;21982;49.804;24.072;2023-03-23T16:00:53;6.30;;;2.22;;
35877;SDS011;21982;49.804;24.072;2023-03-23T16:03:23;5.28;;;2.28;;
35877;SDS011;21982;49.804;24.072;2023-03-23T16:05:54;5.50;;;3.00;;
35877;SDS011;21982;49.804;24.072;2023-03-23T16:08:21;7.55;;;2.60;;
35877;SDS011;21982;49.804;24.072;2023-03-23T16:10:47;8.15;;;2.75;;
35877;SDS011;21982;49.804;24.072;2023-03-23T16:13:13;5.85;;;3.00;;
35877;SDS011;21982;49.804;24.072;2023-03-23T16:15:38;8.57;;;2.97;;
35877;SDS011;21982;49.804;24.072;2023-03-23T16:18:04;8.82;;;4.13;;
35877;SDS011;21982;49.804;24.072;2023-03-23T16:20:30;5.80;;;3.00;;
35877;SDS011;21982;49.804;24.072;2023-03-23T16:22:58;5.47;;;2.45;;
35877;SDS011;21982;49.804;24.072;2023-03-23T16:25:24;5.75;;;2.30;;
35877;SDS011;21982;49.804;24.072;2023-03-23T16:27:52;8.48;;;4.15;;
35877;SDS011;21982;49.804;24.072;2023-03-23T16:30:22;8.25;;;3.58;;
35877;SDS011;21982;49.804;24.072;2023-03-23T16:32:50;5.88;;;2.50;;
35877;SDS011;21982;49.804;24.072;2023-03-23T16:35:18;8.45;;;3.42;;
35877;SDS011;21982;49.804;24.072;2023-03-23T16:37:52;7.43;;;4.05;;
35877;SDS011;21982;49.804;24.072;2023-03-23T16:42:45;18.25;;;8.20;;
35877;SDS011;21982;49.804;24.072;2023-03-23T16:45:11;15.02;;;7.78;;
35877;SDS011;21982;49.804;24.072;2023-03-23T16:47:41;9.27;;;4.63;;
35877;SDS011;21982;49.804;24.072;2023-03-23T16:50:20;13.20;;;5.90;;
35877;SDS011;21982;49.804;24.072;2023-03-23T16:52:46;15.55;;;7.43;;
35877;SDS011;21982;49.804;24.072;2023-03-23T16:55:12;11.77;;;5.95;;
35877;SDS011;21982;49.804;24.072;2023-03-23T16:57:39;11.93;;;5.70;;
35877;SDS011;21982;49.804;24.072;2023-03-23T17:00:08;15.52;;;9.50;;
35877;SDS011;21982;49.804;24.072;2023-03-23T17:02:44;13.23;;;6.35;;
35877;SDS011;21982;49.804;24.072;2023-03-23T17:05:10;12.68;;;5.38;;
35877;SDS011;21982;49.804;24.072;2023-03-23T17:07:40;11.40;;;5.75;;
35877;SDS011;21982;49.804;24.072;2023-03-23T17:10:07;18.42;;;7.60;;
35877;SDS011;21982;49.804;24.072;2023-03-23T17:12:34;12.57;;;5.63;;
35877;SDS011;21982;49.804;24.072;2023-03-23T17:15:02;8.70;;;5.03;;
35877;SDS011;21982;49.804;24.072;2023-03-23T17:17:28;9.38;;;5.22;;